Date,TemperatureHighF,TemperatureAvgF,TemperatureLowF,DewpointHighF,DewpointAvgF,DewpointLowF,HumidityHigh,HumidityAvg,HumidityLow,PressureMaxIn,PressureMinIn,WindSpeedMaxMPH,WindSpeedAvgMPH,GustSpeedMaxMPH,PrecipitationSumIn
2013-11-1,84,56,42,53,41,35,79,61,34,30.16,30.06,7,1,7,0.00
2013-11-2,71,51,40,54,41,32,81,69,54,30.06,29.98,8,1,8,0.00
2013-11-3,68,51,40,46,40,32,87,67,42,30.07,29.95,10,1,10,0.00
2013-11-4,73,48,36,48,35,28,77,60,37,30.08,29.89,9,1,9,0.00
2013-11-5,74,49,35,44,34,28,78,58,30,30.24,30.05,7,1,7,0.00
2013-11-6,84,55,40,43,33,28,62,46,24,30.23,30.16,9,1,9,0.00
2013-11-7,76,54,43,43,36,28,69,52,30,30.16,30.10,6,1,6,0.00
2013-11-8,74,52,39,51,40,31,76,64,43,30.10,29.98,8,1,8,0.00
2013-11-9,65,52,41,52,43,34,82,72,50,30.09,29.96,11,1,11,0.00
2013-11-10,67,53,45,52,45,38,81,75,59,30.18,30.07,10,1,10,0.00
2013-11-11,72,54,44,52,45,39,86,73,48,30.23,30.14,5,1,5,0.00
2013-11-12,75,56,47,56,46,39,78,68,49,30.30,30.20,7,1,7,0.00
2013-11-13,72,55,46,54,46,40,86,73,51,30.29,30.00,7,1,7,0.00
2013-11-14,62,52,46,55,48,44,93,87,77,30.19,29.96,9,1,9,0.00
2013-11-15,66,49,43,51,43,39,89,79,59,29.96,29.80,8,1,8,0.00
2013-11-16,62,50,44,49,44,40,88,80,61,30.02,29.83,9,1,9,0.00
2013-11-17,64,50,42,53,44,37,89,80,63,30.16,29.97,6,1,6,0.00
2013-11-18,60,48,38,49,41,34,89,78,63,30.20,30.12,7,1,7,0.00
2013-11-19,62,52,44,52,46,38,91,80,67,30.17,30.03,7,0,7,0.13
2013-11-20,63,56,53,59,54,51,96,92,84,30.04,29.92,8,1,8,0.03
2013-11-21,60,51,40,52,46,34,95,84,69,30.05,29.94,6,1,6,0.03
2013-11-22,62,46,38,40,34,29,79,65,43,30.05,29.94,7,1,7,0.00
2013-11-23,65,46,36,49,38,30,84,74,56,30.14,29.97,7,1,7,0.00
2013-11-24,65,45,36,52,38,32,89,78,57,30.27,30.11,9,0,9,0.00
2013-11-25,68,48,37,50,39,33,87,73,50,30.31,30.24,5,1,5,0.00
2013-11-26,70,53,45,51,41,37,74,64,49,30.27,30.06,8,1,8,0.00
2013-11-27,64,52,44,48,43,38,81,72,56,30.06,29.88,8,1,8,0.00
2013-11-28,68,50,42,51,41,35,85,72,51,30.13,29.86,7,0,7,0.00
2013-11-29,71,50,39,51,41,34,86,73,47,30.29,30.11,6,1,6,0.00
2013-11-30,64,48,35,51,41,31,87,77,62,30.32,30.23,8,0,8,0.00